sensor_id;sensor_type;location;lat;lon;timestamp;P1;durP1;ratioP1;P2;durP2;ratioP2
21806;SDS011;11065;50.786;7.840;2023-02-15T00:02:04;10.37;;;7.27;;
21806;SDS011;11065;50.786;7.840;2023-02-15T00:04:33;12.77;;;7.63;;
21806;SDS011;11065;50.786;7.840;2023-02-15T00:07:17;10.40;;;7.27;;
21806;SDS011;11065;50.786;7.840;2023-02-15T00:09:46;11.90;;;6.83;;
21806;SDS011;11065;50.786;7.840;2023-02-15T00:12:14;9.43;;;6.00;;
21806;SDS011;11065;50.786;7.840;2023-02-15T00:14:44;9.97;;;6.50;;
21806;SDS011;11065;50.786;7.840;2023-02-15T00:17:12;9.80;;;6.77;;
21806;SDS011;11065;50.786;7.840;2023-02-15T00:19:40;10.70;;;6.73;;
21806;SDS011;11065;50.786;7.840;2023-02-15T00:22:08;10.40;;;6.57;;
21806;SDS011;11065;50.786;7.840;2023-02-15T00:24:36;12.00;;;7.47;;
21806;SDS011;11065;50.786;7.840;2023-02-15T00:27:04;12.33;;;7.67;;
21806;SDS011;11065;50.786;7.840;2023-02-15T00:29:32;12.17;;;7.53;;
21806;SDS011;11065;50.786;7.840;2023-02-15T00:32:02;9.53;;;6.97;;
21806;SDS011;11065;50.786;7.840;2023-02-15T00:34:30;10.67;;;7.20;;
21806;SDS011;11065;50.786;7.840;2023-02-15T00:36:58;10.73;;;7.17;;
21806;SDS011;11065;50.786;7.840;2023-02-15T00:39:26;11.83;;;7.00;;
21806;SDS011;11065;50.786;7.840;2023-02-15T00:41:55;10.33;;;7.23;;
21806;SDS011;11065;50.786;7.840;2023-02-15T00:44:23;10.43;;;7.27;;
21806;SDS011;11065;50.786;7.840;2023-02-15T00:46:55;11.03;;;7.57;;
21806;SDS011;11065;50.786;7.840;2023-02-15T00:49:25;10.03;;;6.87;;
21806;SDS011;11065;50.786;7.840;2023-02-15T00:51:53;8.93;;;6.87;;
21806;SDS011;11065;50.786;7.840;2023-02-15T00:54:21;9.83;;;6.53;;
21806;SDS011;11065;50.786;7.840;2023-02-15T00:56:49;10.10;;;6.30;;
21806;SDS011;11065;50.786;7.840;2023-02-15T00:59:17;10.97;;;6.93;;
21806;SDS011;11065;50.786;7.840;2023-02-15T01:01:46;11.13;;;6.87;;
21806;SDS011;11065;50.786;7.840;2023-02-15T01:04:14;9.63;;;6.37;;
21806;SDS011;11065;50.786;7.840;2023-02-15T01:06:44;11.30;;;6.83;;
21806;SDS011;11065;50.786;7.840;2023-02-15T01:09:12;10.73;;;7.13;;
21806;SDS011;11065;50.786;7.840;2023-02-15T01:11:40;11.13;;;6.67;;
21806;SDS011;11065;50.786;7.840;2023-02-15T01:14:08;11.13;;;7.13;;
21806;SDS011;11065;50.786;7.840;2023-02-15T01:16:37;13.10;;;8.07;;
21806;SDS011;11065;50.786;7.840;2023-02-15T01:19:05;16.93;;;9.10;;
21806;SDS011;11065;50.786;7.840;2023-02-15T01:21:33;13.90;;;8.60;;
21806;SDS011;11065;50.786;7.840;2023-02-15T01:24:03;16.77;;;10.43;;
21806;SDS011;11065;50.786;7.840;2023-02-15T01:26:31;15.57;;;9.60;;
21806;SDS011;11065;50.786;7.840;2023-02-15T01:28:59;15.30;;;9.10;;
21806;SDS011;11065;50.786;7.840;2023-02-15T01:31:27;13.80;;;8.57;;
21806;SDS011;11065;50.786;7.840;2023-02-15T01:33:55;13.53;;;8.57;;
21806;SDS011;11065;50.786;7.840;2023-02-15T01:36:23;13.23;;;8.50;;
21806;SDS011;11065;50.786;7.840;2023-02-15T01:38:52;12.90;;;7.27;;
21806;SDS011;11065;50.786;7.840;2023-02-15T01:41:21;12.47;;;7.20;;
21806;SDS011;11065;50.786;7.840;2023-02-15T01:43:54;12.20;;;7.33;;
21806;SDS011;11065;50.786;7.840;2023-02-15T01:46:25;11.13;;;7.17;;
21806;SDS011;11065;50.786;7.840;2023-02-15T01:48:58;10.60;;;7.57;;
21806;SDS011;11065;50.786;7.840;2023-02-15T01:51:30;9.23;;;7.07;;
21806;SDS011;11065;50.786;7.840;2023-02-15T01:54:02;12.83;;;7.30;;
21806;SDS011;11065;50.786;7.840;2023-02-15T01:56:40;11.57;;;7.03;;
21806;SDS011;11065;50.786;7.840;2023-02-15T01:59:11;11.33;;;7.93;;
21806;SDS011;11065;50.786;7.840;2023-02-15T02:01:42;10.87;;;6.67;;
21806;SDS011;11065;50.786;7.840;2023-02-15T02:04:12;10.90;;;6.40;;
21806;SDS011;11065;50.786;7.840;2023-02-15T02:06:44;13.03;;;7.17;;
21806;SDS011;11065;50.786;7.840;2023-02-15T02:09:15;9.80;;;6.00;;
21806;SDS011;11065;50.786;7.840;2023-02-15T02:11:46;11.33;;;6.53;;
21806;SDS011;11065;50.786;7.840;2023-02-15T02:14:15;10.50;;;6.77;;
21806;SDS011;11065;50.786;7.840;2023-02-15T02:16:46;11.03;;;7.00;;
21806;SDS011;11065;50.786;7.840;2023-02-15T02:19:33;12.43;;;7.07;;
21806;SDS011;11065;50.786;7.840;2023-02-15T02:22:37;10.90;;;6.53;;
21806;SDS011;11065;50.786;7.840;2023-02-15T02:28:57;8.77;;;5.77;;
21806;SDS011;11065;50.786;7.840;2023-02-15T02:31:52;10.50;;;6.47;;
21806;SDS011;11065;50.786;7.840;2023-02-15T02:34:39;10.67;;;6.40;;
21806;SDS011;11065;50.786;7.840;2023-02-15T02:37:16;10.20;;;6.80;;
21806;SDS011;11065;50.786;7.840;2023-02-15T02:39:52;9.23;;;6.10;;
21806;SDS011;11065;50.786;7.840;2023-02-15T02:42:29;9.30;;;5.90;;
21806;SDS011;11065;50.786;7.840;2023-02-15T02:45:03;10.20;;;6.07;;
21806;SDS011;11065;50.786;7.840;2023-02-15T02:47:36;7.57;;;5.13;;
21806;SDS011;11065;50.786;7.840;2023-02-15T02:50:09;9.23;;;5.63;;
21806;SDS011;11065;50.786;7.840;2023-02-15T02:52:42;9.83;;;6.30;;
21806;SDS011;11065;50.786;7.840;2023-02-15T02:55:12;9.53;;;5.80;;
21806;SDS011;11065;50.786;7.840;2023-02-15T02:57:48;10.33;;;6.70;;
21806;SDS011;11065;50.786;7.840;2023-02-15T03:00:21;12.13;;;6.87;;
21806;SDS011;11065;50.786;7.840;2023-02-15T03:02:53;13.90;;;7.97;;
21806;SDS011;11065;50.786;7.840;2023-02-15T03:05:27;14.33;;;8.53;;
21806;SDS011;11065;50.786;7.840;2023-02-15T03:07:57;12.33;;;8.07;;
21806;SDS011;11065;50.786;7.840;2023-02-15T03:10:27;13.73;;;7.70;;
21806;SDS011;11065;50.786;7.840;2023-02-15T03:12:56;12.23;;;8.03;;
21806;SDS011;11065;50.786;7.840;2023-02-15T03:15:26;11.43;;;8.13;;
21806;SDS011;11065;50.786;7.840;2023-02-15T03:18:22;13.47;;;8.10;;
21806;SDS011;11065;50.786;7.840;2023-02-15T03:20:54;11.63;;;7.77;;
21806;SDS011;11065;50.786;7.840;2023-02-15T03:23:24;13.37;;;7.50;;
21806;SDS011;11065;50.786;7.840;2023-02-15T03:25:58;11.87;;;7.73;;
21806;SDS011;11065;50.786;7.840;2023-02-15T03:28:32;10.30;;;6.73;;
21806;SDS011;11065;50.786;7.840;2023-02-15T03:31:04;12.63;;;7.70;;
21806;SDS011;11065;50.786;7.840;2023-02-15T03:33:34;11.10;;;6.83;;
21806;SDS011;11065;50.786;7.840;2023-02-15T03:36:08;10.27;;;6.87;;
21806;SDS011;11065;50.786;7.840;2023-02-15T03:38:47;11.03;;;7.03;;
21806;SDS011;11065;50.786;7.840;2023-02-15T03:41:25;13.07;;;7.63;;
21806;SDS011;11065;50.786;7.840;2023-02-15T03:43:59;10.47;;;6.73;;
21806;SDS011;11065;50.786;7.840;2023-02-15T03:46:33;11.67;;;7.37;;
21806;SDS011;11065;50.786;7.840;2023-02-15T03:49:09;11.07;;;7.83;;
21806;SDS011;11065;50.786;7.840;2023-02-15T03:51:43;11.23;;;6.47;;
21806;SDS011;11065;50.786;7.840;2023-02-15T03:54:14;9.77;;;6.17;;
21806;SDS011;11065;50.786;7.840;2023-02-15T03:57:06;10.00;;;6.47;;
21806;SDS011;11065;50.786;7.840;2023-02-15T03:59:54;9.73;;;6.03;;
21806;SDS011;11065;50.786;7.840;2023-02-15T04:02:42;10.67;;;6.63;;
21806;SDS011;11065;50.786;7.840;2023-02-15T04:05:20;9.90;;;6.07;;
21806;SDS011;11065;50.786;7.840;2023-02-15T04:07:49;8.17;;;5.87;;
21806;SDS011;11065;50.786;7.840;2023-02-15T04:10:17;8.40;;;5.40;;
21806;SDS011;11065;50.786;7.840;2023-02-15T04:13:02;9.30;;;5.93;;
21806;SDS011;11065;50.786;7.840;2023-02-15T04:15:30;8.40;;;5.27;;
21806;SDS011;11065;50.786;7.840;2023-02-15T04:18:16;8.03;;;5.70;;
21806;SDS011;11065;50.786;7.840;2023-02-15T04:20:44;8.67;;;5.60;;
21806;SDS011;11065;50.786;7.840;2023-02-15T04:23:32;10.87;;;6.77;;
21806;SDS011;11065;50.786;7.840;2023-02-15T04:26:17;8.37;;;4.97;;
21806;SDS011;11065;50.786;7.840;2023-02-15T04:28:45;8.13;;;5.03;;
21806;SDS011;11065;50.786;7.840;2023-02-15T04:31:13;10.33;;;5.43;;
21806;SDS011;11065;50.786;7.840;2023-02-15T04:33:41;9.33;;;5.57;;
21806;SDS011;11065;50.786;7.840;2023-02-15T04:36:10;8.87;;;5.20;;
21806;SDS011;11065;50.786;7.840;2023-02-15T04:38:39;8.70;;;5.57;;
21806;SDS011;11065;50.786;7.840;2023-02-15T04:41:07;8.83;;;5.10;;
21806;SDS011;11065;50.786;7.840;2023-02-15T04:43:36;9.10;;;5.33;;
21806;SDS011;11065;50.786;7.840;2023-02-15T04:46:05;8.77;;;5.47;;
21806;SDS011;11065;50.786;7.840;2023-02-15T04:48:33;10.47;;;6.07;;
21806;SDS011;11065;50.786;7.840;2023-02-15T04:51:04;10.73;;;5.87;;
21806;SDS011;11065;50.786;7.840;2023-02-15T04:53:33;10.13;;;5.43;;
21806;SDS011;11065;50.786;7.840;2023-02-15T04:56:02;8.80;;;5.27;;
21806;SDS011;11065;50.786;7.840;2023-02-15T04:58:30;8.90;;;5.23;;
21806;SDS011;11065;50.786;7.840;2023-02-15T05:00:59;9.07;;;5.80;;
21806;SDS011;11065;50.786;7.840;2023-02-15T05:03:27;10.43;;;5.97;;
21806;SDS011;11065;50.786;7.840;2023-02-15T05:05:55;9.83;;;5.90;;
21806;SDS011;11065;50.786;7.840;2023-02-15T05:08:23;9.93;;;5.90;;
21806;SDS011;11065;50.786;7.840;2023-02-15T05:10:51;11.57;;;6.30;;
21806;SDS011;11065;50.786;7.840;2023-02-15T05:13:20;10.10;;;5.90;;
21806;SDS011;11065;50.786;7.840;2023-02-15T05:15:49;9.07;;;5.30;;
21806;SDS011;11065;50.786;7.840;2023-02-15T05:18:17;8.93;;;5.00;;
21806;SDS011;11065;50.786;7.840;2023-02-15T05:20:47;8.83;;;5.53;;
21806;SDS011;11065;50.786;7.840;2023-02-15T05:23:15;9.30;;;5.60;;
21806;SDS011;11065;50.786;7.840;2023-02-15T05:25:46;9.17;;;5.37;;
21806;SDS011;11065;50.786;7.840;2023-02-15T05:28:34;10.20;;;6.37;;
21806;SDS011;11065;50.786;7.840;2023-02-15T05:31:04;11.20;;;7.20;;
21806;SDS011;11065;50.786;7.840;2023-02-15T05:33:34;10.53;;;6.70;;
21806;SDS011;11065;50.786;7.840;2023-02-15T05:36:02;10.53;;;6.77;;
21806;SDS011;11065;50.786;7.840;2023-02-15T05:38:31;12.27;;;7.07;;
21806;SDS011;11065;50.786;7.840;2023-02-15T05:40:59;11.80;;;7.20;;
21806;SDS011;11065;50.786;7.840;2023-02-15T05:43:27;11.07;;;7.50;;
21806;SDS011;11065;50.786;7.840;2023-02-15T05:45:57;9.73;;;6.87;;
21806;SDS011;11065;50.786;7.840;2023-02-15T05:48:26;9.60;;;6.30;;
21806;SDS011;11065;50.786;7.840;2023-02-15T05:50:58;10.00;;;7.10;;
21806;SDS011;11065;50.786;7.840;2023-02-15T05:53:28;10.37;;;6.13;;
21806;SDS011;11065;50.786;7.840;2023-02-15T05:55:58;11.53;;;6.63;;
21806;SDS011;11065;50.786;7.840;2023-02-15T05:58:27;10.63;;;6.87;;
21806;SDS011;11065;50.786;7.840;2023-02-15T06:01:06;8.73;;;5.47;;
21806;SDS011;11065;50.786;7.840;2023-02-15T06:03:35;11.23;;;6.53;;
21806;SDS011;11065;50.786;7.840;2023-02-15T06:06:03;9.00;;;5.93;;
21806;SDS011;11065;50.786;7.840;2023-02-15T06:08:32;8.40;;;5.33;;
21806;SDS011;11065;50.786;7.840;2023-02-15T06:11:01;10.27;;;6.03;;
21806;SDS011;11065;50.786;7.840;2023-02-15T06:13:29;9.67;;;5.97;;
21806;SDS011;11065;50.786;7.840;2023-02-15T06:15:59;9.77;;;5.40;;
21806;SDS011;11065;50.786;7.840;2023-02-15T06:18:28;9.17;;;5.83;;
21806;SDS011;11065;50.786;7.840;2023-02-15T06:20:56;10.10;;;5.73;;
21806;SDS011;11065;50.786;7.840;2023-02-15T06:23:24;10.07;;;6.37;;
21806;SDS011;11065;50.786;7.840;2023-02-15T06:25:52;9.07;;;5.83;;
21806;SDS011;11065;50.786;7.840;2023-02-15T06:28:20;8.70;;;5.33;;
21806;SDS011;11065;50.786;7.840;2023-02-15T06:30:48;9.57;;;5.33;;
21806;SDS011;11065;50.786;7.840;2023-02-15T06:33:18;9.40;;;6.07;;
21806;SDS011;11065;50.786;7.840;2023-02-15T06:35:46;10.60;;;6.03;;
21806;SDS011;11065;50.786;7.840;2023-02-15T06:38:14;10.33;;;6.50;;
21806;SDS011;11065;50.786;7.840;2023-02-15T06:40:42;10.83;;;6.70;;
21806;SDS011;11065;50.786;7.840;2023-02-15T06:43:10;10.43;;;6.67;;
21806;SDS011;11065;50.786;7.840;2023-02-15T06:45:38;10.87;;;7.80;;
21806;SDS011;11065;50.786;7.840;2023-02-15T06:48:06;9.87;;;7.00;;
21806;SDS011;11065;50.786;7.840;2023-02-15T06:50:36;12.00;;;7.10;;
21806;SDS011;11065;50.786;7.840;2023-02-15T06:53:04;10.43;;;6.97;;
21806;SDS011;11065;50.786;7.840;2023-02-15T06:55:32;12.37;;;7.83;;
21806;SDS011;11065;50.786;7.840;2023-02-15T06:58:00;33.10;;;20.77;;
21806;SDS011;11065;50.786;7.840;2023-02-15T07:00:28;46.90;;;23.00;;
21806;SDS011;11065;50.786;7.840;2023-02-15T07:02:57;34.27;;;17.00;;
21806;SDS011;11065;50.786;7.840;2023-02-15T07:05:25;30.37;;;14.63;;
21806;SDS011;11065;50.786;7.840;2023-02-15T07:07:59;22.70;;;11.80;;
21806;SDS011;11065;50.786;7.840;2023-02-15T07:10:28;16.37;;;10.00;;
21806;SDS011;11065;50.786;7.840;2023-02-15T07:12:56;15.00;;;9.43;;
21806;SDS011;11065;50.786;7.840;2023-02-15T07:15:23;16.10;;;8.70;;
21806;SDS011;11065;50.786;7.840;2023-02-15T07:17:51;13.20;;;8.40;;
21806;SDS011;11065;50.786;7.840;2023-02-15T07:20:20;14.63;;;8.70;;
21806;SDS011;11065;50.786;7.840;2023-02-15T07:22:49;12.43;;;8.40;;
21806;SDS011;11065;50.786;7.840;2023-02-15T07:25:19;12.90;;;8.63;;
21806;SDS011;11065;50.786;7.840;2023-02-15T07:27:47;13.60;;;7.83;;
21806;SDS011;11065;50.786;7.840;2023-02-15T07:30:16;12.70;;;8.07;;
21806;SDS011;11065;50.786;7.840;2023-02-15T07:32:44;11.10;;;7.83;;
21806;SDS011;11065;50.786;7.840;2023-02-15T07:35:31;11.43;;;7.43;;
21806;SDS011;11065;50.786;7.840;2023-02-15T07:37:59;10.27;;;7.27;;
21806;SDS011;11065;50.786;7.840;2023-02-15T07:40:28;12.30;;;7.57;;
21806;SDS011;11065;50.786;7.840;2023-02-15T07:42:57;13.13;;;7.13;;
21806;SDS011;11065;50.786;7.840;2023-02-15T07:45:25;13.43;;;7.10;;
21806;SDS011;11065;50.786;7.840;2023-02-15T07:47:54;10.60;;;6.50;;
21806;SDS011;11065;50.786;7.840;2023-02-15T07:50:22;9.93;;;6.50;;
21806;SDS011;11065;50.786;7.840;2023-02-15T07:52:50;11.13;;;7.63;;
21806;SDS011;11065;50.786;7.840;2023-02-15T07:55:18;11.30;;;7.80;;
21806;SDS011;11065;50.786;7.840;2023-02-15T07:57:48;13.13;;;8.67;;
21806;SDS011;11065;50.786;7.840;2023-02-15T08:00:18;10.90;;;7.47;;
21806;SDS011;11065;50.786;7.840;2023-02-15T08:02:49;9.87;;;6.77;;
21806;SDS011;11065;50.786;7.840;2023-02-15T08:05:39;10.03;;;6.60;;
21806;SDS011;11065;50.786;7.840;2023-02-15T08:08:08;9.30;;;6.67;;
21806;SDS011;11065;50.786;7.840;2023-02-15T08:10:59;9.10;;;6.47;;
21806;SDS011;11065;50.786;7.840;2023-02-15T08:13:47;10.13;;;6.53;;
21806;SDS011;11065;50.786;7.840;2023-02-15T08:16:23;11.37;;;6.90;;
21806;SDS011;11065;50.786;7.840;2023-02-15T08:18:52;11.07;;;6.73;;
21806;SDS011;11065;50.786;7.840;2023-02-15T08:21:21;12.03;;;8.03;;
21806;SDS011;11065;50.786;7.840;2023-02-15T08:23:50;11.40;;;7.10;;
21806;SDS011;11065;50.786;7.840;2023-02-15T08:26:18;10.80;;;7.17;;
21806;SDS011;11065;50.786;7.840;2023-02-15T08:28:48;10.63;;;6.93;;
21806;SDS011;11065;50.786;7.840;2023-02-15T08:31:17;10.13;;;6.30;;
21806;SDS011;11065;50.786;7.840;2023-02-15T08:33:46;11.23;;;6.93;;
21806;SDS011;11065;50.786;7.840;2023-02-15T08:36:16;11.73;;;7.17;;
21806;SDS011;11065;50.786;7.840;2023-02-15T08:38:45;11.93;;;7.37;;
21806;SDS011;11065;50.786;7.840;2023-02-15T08:41:15;14.03;;;8.23;;
21806;SDS011;11065;50.786;7.840;2023-02-15T08:43:49;13.03;;;8.03;;
21806;SDS011;11065;50.786;7.840;2023-02-15T08:46:20;13.83;;;8.80;;
21806;SDS011;11065;50.786;7.840;2023-02-15T08:48:49;16.87;;;9.30;;
21806;SDS011;11065;50.786;7.840;2023-02-15T08:51:18;14.50;;;8.73;;
21806;SDS011;11065;50.786;7.840;2023-02-15T08:53:48;14.60;;;9.80;;
21806;SDS011;11065;50.786;7.840;2023-02-15T08:56:20;12.73;;;8.03;;
21806;SDS011;11065;50.786;7.840;2023-02-15T08:58:51;13.93;;;8.83;;
21806;SDS011;11065;50.786;7.840;2023-02-15T09:01:20;12.40;;;8.23;;
21806;SDS011;11065;50.786;7.840;2023-02-15T09:03:50;13.57;;;9.30;;
21806;SDS011;11065;50.786;7.840;2023-02-15T09:06:20;15.30;;;9.53;;
21806;SDS011;11065;50.786;7.840;2023-02-15T09:08:48;14.67;;;9.20;;
21806;SDS011;11065;50.786;7.840;2023-02-15T09:11:17;15.33;;;9.23;;
21806;SDS011;11065;50.786;7.840;2023-02-15T09:13:52;13.30;;;8.57;;
21806;SDS011;11065;50.786;7.840;2023-02-15T09:16:22;11.67;;;7.50;;
21806;SDS011;11065;50.786;7.840;2023-02-15T09:18:51;12.97;;;9.00;;
21806;SDS011;11065;50.786;7.840;2023-02-15T09:21:21;12.83;;;8.87;;
21806;SDS011;11065;50.786;7.840;2023-02-15T09:23:52;13.63;;;7.83;;
21806;SDS011;11065;50.786;7.840;2023-02-15T09:26:24;10.23;;;7.13;;
21806;SDS011;11065;50.786;7.840;2023-02-15T09:28:55;11.27;;;8.10;;
21806;SDS011;11065;50.786;7.840;2023-02-15T09:31:25;10.70;;;7.93;;
21806;SDS011;11065;50.786;7.840;2023-02-15T09:33:55;13.83;;;8.90;;
21806;SDS011;11065;50.786;7.840;2023-02-15T09:36:24;10.27;;;7.93;;
21806;SDS011;11065;50.786;7.840;2023-02-15T09:38:54;11.27;;;8.43;;
21806;SDS011;11065;50.786;7.840;2023-02-15T09:44:32;10.47;;;8.67;;
21806;SDS011;11065;50.786;7.840;2023-02-15T09:47:20;10.77;;;8.83;;
21806;SDS011;11065;50.786;7.840;2023-02-15T09:50:10;9.32;;;7.82;;
21806;SDS011;11065;50.786;7.840;2023-02-15T09:52:48;11.70;;;8.98;;
21806;SDS011;11065;50.786;7.840;2023-02-15T09:55:37;10.77;;;8.80;;
21806;SDS011;11065;50.786;7.840;2023-02-15T09:58:16;10.90;;;9.02;;
21806;SDS011;11065;50.786;7.840;2023-02-15T10:00:56;11.45;;;9.13;;
21806;SDS011;11065;50.786;7.840;2023-02-15T10:03:38;10.90;;;8.73;;
21806;SDS011;11065;50.786;7.840;2023-02-15T10:06:20;11.60;;;8.50;;
21806;SDS011;11065;50.786;7.840;2023-02-15T10:09:00;10.15;;;8.25;;
21806;SDS011;11065;50.786;7.840;2023-02-15T10:11:42;11.02;;;8.63;;
21806;SDS011;11065;50.786;7.840;2023-02-15T10:14:25;8.82;;;7.60;;
21806;SDS011;11065;50.786;7.840;2023-02-15T10:17:10;9.40;;;8.00;;
21806;SDS011;11065;50.786;7.840;2023-02-15T10:19:50;10.23;;;7.85;;
21806;SDS011;11065;50.786;7.840;2023-02-15T10:22:28;10.45;;;7.70;;
21806;SDS011;11065;50.786;7.840;2023-02-15T10:25:04;8.80;;;7.20;;
21806;SDS011;11065;50.786;7.840;2023-02-15T10:27:48;8.80;;;7.80;;
21806;SDS011;11065;50.786;7.840;2023-02-15T10:30:17;8.85;;;7.28;;
21806;SDS011;11065;50.786;7.840;2023-02-15T10:32:59;9.25;;;7.18;;
21806;SDS011;11065;50.786;7.840;2023-02-15T10:35:31;9.82;;;7.75;;
21806;SDS011;11065;50.786;7.840;2023-02-15T10:38:10;10.57;;;7.72;;
21806;SDS011;11065;50.786;7.840;2023-02-15T10:40:56;8.82;;;7.22;;
21806;SDS011;11065;50.786;7.840;2023-02-15T10:43:40;7.53;;;6.45;;
21806;SDS011;11065;50.786;7.840;2023-02-15T10:46:17;8.43;;;6.18;;
21806;SDS011;11065;50.786;7.840;2023-02-15T10:49:07;9.05;;;5.45;;
21806;SDS011;11065;50.786;7.840;2023-02-15T10:51:48;6.88;;;6.18;;
21806;SDS011;11065;50.786;7.840;2023-02-15T10:54:30;6.57;;;5.55;;
21806;SDS011;11065;50.786;7.840;2023-02-15T10:57:04;6.82;;;5.85;;
21806;SDS011;11065;50.786;7.840;2023-02-15T10:59:53;8.65;;;6.13;;
21806;SDS011;11065;50.786;7.840;2023-02-15T11:02:33;7.65;;;5.90;;
21806;SDS011;11065;50.786;7.840;2023-02-15T11:05:20;10.20;;;9.10;;
21806;SDS011;11065;50.786;7.840;2023-02-15T11:07:54;8.45;;;7.15;;
21806;SDS011;11065;50.786;7.840;2023-02-15T11:10:28;8.25;;;6.72;;
21806;SDS011;11065;50.786;7.840;2023-02-15T11:13:00;7.13;;;6.20;;
21806;SDS011;11065;50.786;7.840;2023-02-15T11:15:33;7.13;;;5.75;;
21806;SDS011;11065;50.786;7.840;2023-02-15T11:18:05;6.28;;;5.53;;
21806;SDS011;11065;50.786;7.840;2023-02-15T11:20:43;6.82;;;5.45;;
21806;SDS011;11065;50.786;7.840;2023-02-15T11:23:18;8.52;;;6.82;;
21806;SDS011;11065;50.786;7.840;2023-02-15T11:25:47;7.13;;;6.38;;
21806;SDS011;11065;50.786;7.840;2023-02-15T11:28:23;6.82;;;6.00;;
21806;SDS011;11065;50.786;7.840;2023-02-15T11:30:55;6.63;;;5.70;;
21806;SDS011;11065;50.786;7.840;2023-02-15T11:33:26;9.68;;;7.22;;
21806;SDS011;11065;50.786;7.840;2023-02-15T11:35:59;10.65;;;8.30;;
21806;SDS011;11065;50.786;7.840;2023-02-15T11:38:32;7.18;;;5.75;;
21806;SDS011;11065;50.786;7.840;2023-02-15T11:41:02;6.65;;;5.43;;
21806;SDS011;11065;50.786;7.840;2023-02-15T11:43:35;6.82;;;5.45;;
21806;SDS011;11065;50.786;7.840;2023-02-15T11:46:09;5.97;;;4.95;;
21806;SDS011;11065;50.786;7.840;2023-02-15T11:48:39;7.95;;;5.63;;
21806;SDS011;11065;50.786;7.840;2023-02-15T11:51:11;8.77;;;6.10;;
21806;SDS011;11065;50.786;7.840;2023-02-15T11:53:42;6.85;;;5.45;;
21806;SDS011;11065;50.786;7.840;2023-02-15T11:56:13;7.03;;;5.75;;
21806;SDS011;11065;50.786;7.840;2023-02-15T11:58:44;7.13;;;5.20;;
21806;SDS011;11065;50.786;7.840;2023-02-15T12:01:16;7.72;;;5.93;;
21806;SDS011;11065;50.786;7.840;2023-02-15T12:03:50;7.65;;;5.88;;
21806;SDS011;11065;50.786;7.840;2023-02-15T12:06:23;7.38;;;6.30;;
21806;SDS011;11065;50.786;7.840;2023-02-15T12:08:55;6.45;;;5.65;;
21806;SDS011;11065;50.786;7.840;2023-02-15T12:11:30;7.15;;;5.93;;
21806;SDS011;11065;50.786;7.840;2023-02-15T12:14:02;8.10;;;5.93;;
21806;SDS011;11065;50.786;7.840;2023-02-15T12:16:32;7.90;;;6.40;;
21806;SDS011;11065;50.786;7.840;2023-02-15T12:19:12;6.85;;;5.82;;
21806;SDS011;11065;50.786;7.840;2023-02-15T12:21:52;7.07;;;5.47;;
21806;SDS011;11065;50.786;7.840;2023-02-15T12:24:21;7.63;;;5.72;;
21806;SDS011;11065;50.786;7.840;2023-02-15T12:26:56;7.82;;;5.97;;
21806;SDS011;11065;50.786;7.840;2023-02-15T12:29:27;8.23;;;6.47;;
21806;SDS011;11065;50.786;7.840;2023-02-15T12:31:58;8.88;;;7.03;;
21806;SDS011;11065;50.786;7.840;2023-02-15T12:34:28;11.00;;;8.05;;
21806;SDS011;11065;50.786;7.840;2023-02-15T12:37:01;8.02;;;6.03;;
21806;SDS011;11065;50.786;7.840;2023-02-15T12:39:37;7.90;;;6.10;;
21806;SDS011;11065;50.786;7.840;2023-02-15T12:42:17;7.88;;;5.88;;
21806;SDS011;11065;50.786;7.840;2023-02-15T12:44:56;6.60;;;5.35;;
21806;SDS011;11065;50.786;7.840;2023-02-15T12:47:26;7.93;;;5.93;;
21806;SDS011;11065;50.786;7.840;2023-02-15T12:50:04;7.60;;;6.07;;
21806;SDS011;11065;50.786;7.840;2023-02-15T12:52:48;9.15;;;5.28;;
21806;SDS011;11065;50.786;7.840;2023-02-15T12:55:20;7.97;;;5.88;;
21806;SDS011;11065;50.786;7.840;2023-02-15T12:57:50;5.93;;;4.78;;
21806;SDS011;11065;50.786;7.840;2023-02-15T13:00:33;7.10;;;5.45;;
21806;SDS011;11065;50.786;7.840;2023-02-15T13:03:01;6.85;;;5.35;;
21806;SDS011;11065;50.786;7.840;2023-02-15T13:05:31;8.85;;;5.57;;
21806;SDS011;11065;50.786;7.840;2023-02-15T13:08:03;7.25;;;5.43;;
21806;SDS011;11065;50.786;7.840;2023-02-15T13:10:39;7.22;;;5.43;;
21806;SDS011;11065;50.786;7.840;2023-02-15T13:13:10;7.28;;;5.28;;
21806;SDS011;11065;50.786;7.840;2023-02-15T13:15:44;8.57;;;6.03;;
21806;SDS011;11065;50.786;7.840;2023-02-15T13:18:16;8.05;;;5.53;;
21806;SDS011;11065;50.786;7.840;2023-02-15T13:20:58;7.53;;;5.32;;
21806;SDS011;11065;50.786;7.840;2023-02-15T13:23:35;8.48;;;5.65;;
21806;SDS011;11065;50.786;7.840;2023-02-15T13:26:04;7.72;;;5.88;;
21806;SDS011;11065;50.786;7.840;2023-02-15T13:28:39;6.35;;;5.05;;
21806;SDS011;11065;50.786;7.840;2023-02-15T13:31:12;7.50;;;5.18;;
21806;SDS011;11065;50.786;7.840;2023-02-15T13:33:43;8.63;;;5.55;;
21806;SDS011;11065;50.786;7.840;2023-02-15T13:36:15;7.50;;;5.25;;
21806;SDS011;11065;50.786;7.840;2023-02-15T13:38:55;8.68;;;5.75;;
21806;SDS011;11065;50.786;7.840;2023-02-15T13:41:32;8.75;;;5.13;;
21806;SDS011;11065;50.786;7.840;2023-02-15T13:44:09;9.02;;;5.55;;
21806;SDS011;11065;50.786;7.840;2023-02-15T13:46:48;9.02;;;5.68;;
21806;SDS011;11065;50.786;7.840;2023-02-15T13:49:28;8.60;;;5.65;;
21806;SDS011;11065;50.786;7.840;2023-02-15T13:52:08;9.90;;;6.20;;
21806;SDS011;11065;50.786;7.840;2023-02-15T13:54:49;8.50;;;5.93;;
21806;SDS011;11065;50.786;7.840;2023-02-15T14:00:21;9.57;;;6.20;;
21806;SDS011;11065;50.786;7.840;2023-02-15T14:03:02;8.23;;;5.50;;
21806;SDS011;11065;50.786;7.840;2023-02-15T14:05:47;7.80;;;5.80;;
21806;SDS011;11065;50.786;7.840;2023-02-15T14:08:32;8.05;;;6.03;;
21806;SDS011;11065;50.786;7.840;2023-02-15T14:11:12;8.15;;;5.75;;
21806;SDS011;11065;50.786;7.840;2023-02-15T14:13:57;7.65;;;5.55;;
21806;SDS011;11065;50.786;7.840;2023-02-15T14:16:36;8.15;;;5.78;;
21806;SDS011;11065;50.786;7.840;2023-02-15T14:19:32;8.85;;;6.15;;
21806;SDS011;11065;50.786;7.840;2023-02-15T14:22:07;8.50;;;6.18;;
21806;SDS011;11065;50.786;7.840;2023-02-15T14:24:41;9.50;;;6.60;;
21806;SDS011;11065;50.786;7.840;2023-02-15T14:27:19;10.77;;;7.13;;
21806;SDS011;11065;50.786;7.840;2023-02-15T14:29:53;11.35;;;7.57;;
21806;SDS011;11065;50.786;7.840;2023-02-15T14:32:25;11.05;;;7.22;;
21806;SDS011;11065;50.786;7.840;2023-02-15T14:34:59;9.65;;;6.45;;
21806;SDS011;11065;50.786;7.840;2023-02-15T14:37:31;8.33;;;6.43;;
21806;SDS011;11065;50.786;7.840;2023-02-15T14:40:09;11.70;;;6.53;;
21806;SDS011;11065;50.786;7.840;2023-02-15T14:43:07;10.60;;;7.00;;
21806;SDS011;11065;50.786;7.840;2023-02-15T14:45:42;9.80;;;7.23;;
21806;SDS011;11065;50.786;7.840;2023-02-15T14:48:17;10.03;;;7.03;;
21806;SDS011;11065;50.786;7.840;2023-02-15T14:50:51;10.63;;;7.23;;
21806;SDS011;11065;50.786;7.840;2023-02-15T14:56:19;10.07;;;7.50;;
21806;SDS011;11065;50.786;7.840;2023-02-15T14:59:01;9.23;;;6.90;;
21806;SDS011;11065;50.786;7.840;2023-02-15T15:01:42;10.50;;;7.43;;
21806;SDS011;11065;50.786;7.840;2023-02-15T15:04:23;19.37;;;12.57;;
21806;SDS011;11065;50.786;7.840;2023-02-15T15:07:00;15.07;;;9.73;;
21806;SDS011;11065;50.786;7.840;2023-02-15T15:09:36;15.30;;;9.80;;
21806;SDS011;11065;50.786;7.840;2023-02-15T15:12:13;13.73;;;9.03;;
21806;SDS011;11065;50.786;7.840;2023-02-15T15:15:06;13.17;;;9.83;;
21806;SDS011;11065;50.786;7.840;2023-02-15T15:17:51;16.80;;;10.90;;
21806;SDS011;11065;50.786;7.840;2023-02-15T15:23:38;14.30;;;9.70;;
21806;SDS011;11065;50.786;7.840;2023-02-15T15:26:21;12.07;;;8.97;;
21806;SDS011;11065;50.786;7.840;2023-02-15T15:29:03;12.20;;;8.77;;
21806;SDS011;11065;50.786;7.840;2023-02-15T15:31:43;11.80;;;8.30;;
21806;SDS011;11065;50.786;7.840;2023-02-15T15:34:24;10.67;;;8.43;;